createdAt,value
2016-11-11T00:00:47.345Z,0
2016-11-11T00:01:47.302Z,0
2016-11-11T00:02:47.334Z,0
2016-11-11T00:03:47.271Z,0
2016-11-11T00:04:47.253Z,0
2016-11-11T00:05:47.219Z,0
2016-11-11T00:06:47.162Z,0
2016-11-11T00:07:47.166Z,0
2016-11-11T00:08:47.149Z,0
2016-11-11T00:09:47.116Z,0
2016-11-11T00:10:47.088Z,0
2016-11-11T00:11:47.072Z,0
2016-11-11T00:12:47.051Z,0
2016-11-11T00:13:47.046Z,0
2016-11-11T00:14:47.003Z,0
2016-11-11T00:15:46.984Z,0
2016-11-11T00:16:46.947Z,0
2016-11-11T00:17:46.965Z,0
2016-11-11T00:18:46.898Z,0
2016-11-11T00:19:46.913Z,0
2016-11-11T00:20:46.858Z,0
2016-11-11T00:21:46.836Z,0
2016-11-11T00:22:47.126Z,0
2016-11-11T00:23:46.818Z,0
2016-11-11T00:24:46.773Z,0
2016-11-11T00:25:46.766Z,0
2016-11-11T00:26:46.747Z,0
2016-11-11T00:27:46.693Z,0
2016-11-11T00:28:46.703Z,0
2016-11-11T00:29:46.671Z,0
2016-11-11T00:30:46.653Z,0
2016-11-11T00:31:46.610Z,0
2016-11-11T00:32:46.600Z,0
2016-11-11T00:33:46.610Z,0
2016-11-11T00:34:46.528Z,0
2016-11-11T00:35:46.549Z,0
2016-11-11T00:36:46.511Z,0
2016-11-11T00:37:46.478Z,0
2016-11-11T00:38:46.462Z,0
2016-11-11T00:39:46.446Z,0
2016-11-11T00:40:46.430Z,0
2016-11-11T00:41:46.393Z,0
2016-11-11T00:42:46.370Z,0
2016-11-11T00:43:46.372Z,0
2016-11-11T00:44:46.327Z,0
2016-11-11T00:45:46.320Z,0
2016-11-11T00:46:46.291Z,0
2016-11-11T00:47:46.279Z,0
2016-11-11T00:48:46.246Z,0
2016-11-11T00:49:46.245Z,0
2016-11-11T00:50:46.218Z,0
2016-11-11T00:51:46.491Z,0
2016-11-11T00:52:46.157Z,0
2016-11-11T00:53:46.160Z,0
2016-11-11T00:54:46.124Z,0
2016-11-11T00:55:46.109Z,0
2016-11-11T00:56:46.078Z,0
2016-11-11T00:57:46.076Z,0
2016-11-11T00:58:46.037Z,0
2016-11-11T00:59:46.017Z,0
2016-11-11T01:00:46.010Z,0
2016-11-11T01:01:45.977Z,0
2016-11-11T01:02:45.941Z,0
2016-11-11T01:03:45.933Z,0
2016-11-11T01:04:45.890Z,0
2016-11-11T01:05:45.860Z,0
2016-11-11T01:06:45.855Z,0
2016-11-11T01:07:45.840Z,0
2016-11-11T01:08:45.798Z,0
2016-11-11T01:09:45.771Z,0
2016-11-11T01:10:45.767Z,0
2016-11-11T01:11:46.082Z,0
2016-11-11T01:12:45.778Z,0
2016-11-11T01:13:45.730Z,0
2016-11-11T01:14:45.692Z,0
2016-11-11T01:15:45.683Z,0
2016-11-11T01:16:45.658Z,0
2016-11-11T01:17:45.626Z,0
2016-11-11T01:18:45.586Z,0
2016-11-11T01:19:45.557Z,0
2016-11-11T01:20:45.562Z,0
2016-11-11T01:21:45.545Z,0
2016-11-11T01:22:45.504Z,0
2016-11-11T01:23:45.476Z,0
2016-11-11T01:24:45.471Z,0
2016-11-11T01:25:45.450Z,0
2016-11-11T01:26:45.425Z,0
2016-11-11T01:27:45.372Z,0
2016-11-11T01:28:45.667Z,0
2016-11-11T01:29:45.383Z,0
2016-11-11T01:30:45.333Z,0
2016-11-11T01:31:45.316Z,0
2016-11-11T01:32:45.278Z,0
2016-11-11T01:33:45.273Z,0
2016-11-11T01:34:45.228Z,0
2016-11-11T01:35:45.214Z,0
2016-11-11T01:36:45.184Z,0
2016-11-11T01:37:45.159Z,0
2016-11-11T01:38:45.133Z,0
2016-11-11T01:39:45.128Z,0
2016-11-11T01:40:45.094Z,0
2016-11-11T01:41:45.075Z,0
2016-11-11T01:42:45.048Z,0
2016-11-11T01:43:45.064Z,0
2016-11-11T01:44:44.991Z,0
2016-11-11T01:45:45.003Z,0
2016-11-11T01:46:45.320Z,0
2016-11-11T01:47:44.952Z,0
2016-11-11T01:48:44.922Z,0
2016-11-11T01:49:44.912Z,0
2016-11-11T01:50:44.892Z,0
2016-11-11T01:51:44.863Z,0
2016-11-11T01:52:44.839Z,0
2016-11-11T01:53:44.798Z,0
2016-11-11T01:54:44.787Z,0
2016-11-11T01:55:44.804Z,0
2016-11-11T01:56:44.747Z,0
2016-11-11T01:57:44.739Z,0
2016-11-11T01:58:44.724Z,0
2016-11-11T01:59:44.682Z,0
2016-11-11T02:00:44.664Z,0
2016-11-11T02:01:44.688Z,0
2016-11-11T02:02:44.656Z,0
2016-11-11T02:03:44.622Z,0
2016-11-11T02:04:44.608Z,0
2016-11-11T02:05:44.547Z,0
2016-11-11T02:06:44.541Z,0
2016-11-11T02:07:44.523Z,0
2016-11-11T02:08:44.504Z,0
2016-11-11T02:09:44.470Z,0
2016-11-11T02:10:44.453Z,0
2016-11-11T02:11:44.405Z,0
2016-11-11T02:12:44.405Z,0
2016-11-11T02:13:44.357Z,0
2016-11-11T02:14:44.355Z,0
2016-11-11T02:15:44.354Z,0
2016-11-11T02:16:44.328Z,0
2016-11-11T02:17:44.304Z,0
2016-11-11T02:18:44.267Z,0
2016-11-11T02:19:44.255Z,0
2016-11-11T02:20:44.234Z,0
2016-11-11T02:21:44.181Z,0
2016-11-11T02:22:44.201Z,0
2016-11-11T02:23:44.141Z,0
2016-11-11T02:24:44.138Z,0
2016-11-11T02:25:44.119Z,0
2016-11-11T02:26:44.106Z,0
2016-11-11T02:27:44.048Z,0
2016-11-11T02:28:44.044Z,0
2016-11-11T02:29:44.030Z,0
2016-11-11T02:30:43.994Z,0
2016-11-11T02:31:43.981Z,0
2016-11-11T02:32:43.941Z,0
2016-11-11T02:33:43.965Z,0
2016-11-11T02:34:43.934Z,0
2016-11-11T02:35:43.899Z,0
2016-11-11T02:36:43.859Z,0
2016-11-11T02:37:43.861Z,0
2016-11-11T02:38:43.800Z,0
2016-11-11T02:39:43.814Z,0
2016-11-11T02:40:43.761Z,0
2016-11-11T02:41:43.759Z,0
2016-11-11T02:42:43.745Z,0
2016-11-11T02:43:43.744Z,0
2016-11-11T02:44:43.703Z,0
2016-11-11T02:45:43.680Z,0
2016-11-11T02:46:43.657Z,0
2016-11-11T02:47:43.645Z,0
2016-11-11T02:48:43.608Z,0
2016-11-11T02:49:43.590Z,0
2016-11-11T02:50:43.549Z,0
2016-11-11T02:51:43.550Z,0
2016-11-11T02:52:43.504Z,0
2016-11-11T02:53:43.503Z,0
2016-11-11T02:54:43.477Z,0
2016-11-11T02:55:43.438Z,0
2016-11-11T02:56:43.423Z,0
2016-11-11T02:57:43.399Z,0
2016-11-11T02:58:43.374Z,0
2016-11-11T02:59:43.380Z,0
2016-11-11T03:00:43.330Z,0
2016-11-11T03:01:43.343Z,0
2016-11-11T03:02:43.304Z,0
2016-11-11T03:03:43.272Z,0
2016-11-11T03:04:43.269Z,0
2016-11-11T03:05:43.558Z,0
2016-11-11T03:06:43.219Z,0
2016-11-11T03:07:43.171Z,0
2016-11-11T03:08:43.172Z,0
2016-11-11T03:09:43.141Z,0
2016-11-11T03:10:43.116Z,0
2016-11-11T03:11:43.430Z,0
2016-11-11T03:12:43.062Z,0
2016-11-11T03:13:43.076Z,0
2016-11-11T03:14:43.002Z,0
2016-11-11T03:15:42.983Z,0
2016-11-11T03:16:42.972Z,0
2016-11-11T03:17:42.965Z,0
2016-11-11T03:18:42.953Z,0
2016-11-11T03:19:42.929Z,0
2016-11-11T03:20:42.890Z,0
2016-11-11T03:21:42.881Z,0
2016-11-11T03:22:42.863Z,0
2016-11-11T03:23:42.823Z,0
2016-11-11T03:24:42.803Z,0
2016-11-11T03:25:42.812Z,0
2016-11-11T03:26:42.764Z,0
2016-11-11T03:27:42.756Z,0
2016-11-11T03:28:42.737Z,0
2016-11-11T03:29:42.706Z,0
2016-11-11T03:30:42.679Z,0
2016-11-11T03:31:42.643Z,0
2016-11-11T03:32:42.632Z,0
2016-11-11T03:33:42.626Z,0
2016-11-11T03:34:42.583Z,0
2016-11-11T03:35:42.580Z,0
2016-11-11T03:36:42.545Z,0
2016-11-11T03:37:42.553Z,0
2016-11-11T03:38:42.512Z,0
2016-11-11T03:39:42.478Z,0
2016-11-11T03:40:42.469Z,0
2016-11-11T03:41:42.426Z,0
2016-11-11T03:42:42.391Z,0
2016-11-11T03:43:42.372Z,0
2016-11-11T03:44:42.364Z,0
2016-11-11T03:45:42.373Z,0
2016-11-11T03:46:42.332Z,0
2016-11-11T03:47:42.318Z,0
2016-11-11T03:48:42.280Z,0
2016-11-11T03:49:42.250Z,0
2016-11-11T03:50:42.238Z,0
2016-11-11T03:51:42.247Z,0
2016-11-11T03:52:42.185Z,0
2016-11-11T03:53:42.187Z,0
2016-11-11T03:54:42.156Z,0
2016-11-11T03:55:42.156Z,0
2016-11-11T03:56:42.108Z,0
2016-11-11T03:57:42.136Z,0
2016-11-11T03:58:42.074Z,0
2016-11-11T03:59:42.021Z,0
2016-11-11T04:00:42.035Z,0
2016-11-11T04:01:42.018Z,0
2016-11-11T04:02:41.979Z,0
2016-11-11T04:03:41.942Z,0
2016-11-11T04:04:41.919Z,0
2016-11-11T04:05:41.940Z,0
2016-11-11T04:06:41.910Z,0
2016-11-11T04:07:41.879Z,0
2016-11-11T04:08:41.859Z,0
2016-11-11T04:09:41.817Z,0
2016-11-11T04:10:41.808Z,0
2016-11-11T04:11:41.806Z,0
2016-11-11T04:12:41.752Z,0
2016-11-11T04:13:41.761Z,0
2016-11-11T04:14:41.722Z,0
2016-11-11T04:15:41.679Z,0
2016-11-11T04:16:41.677Z,0
2016-11-11T04:17:41.659Z,0
2016-11-11T04:18:41.686Z,0
2016-11-11T04:19:41.596Z,0
2016-11-11T04:20:41.622Z,0
2016-11-11T04:21:41.573Z,0
2016-11-11T04:22:41.547Z,0
2016-11-11T04:23:41.545Z,0
2016-11-11T04:24:41.530Z,0
2016-11-11T04:25:41.523Z,0
2016-11-11T04:26:41.465Z,0
2016-11-11T04:27:41.499Z,0
2016-11-11T04:28:41.457Z,0
2016-11-11T04:29:41.447Z,0
2016-11-11T04:30:41.379Z,0
2016-11-11T04:31:41.366Z,0
2016-11-11T04:32:41.375Z,0
2016-11-11T04:33:41.359Z,0
2016-11-11T04:34:41.300Z,0
2016-11-11T04:35:41.339Z,0
2016-11-11T04:36:41.260Z,0
2016-11-11T04:37:41.250Z,0
2016-11-11T04:38:41.824Z,0
2016-11-11T04:39:41.197Z,0
2016-11-11T04:40:41.153Z,0
2016-11-11T04:41:41.154Z,0
2016-11-11T04:42:41.444Z,0
2016-11-11T04:43:41.144Z,0
2016-11-11T04:44:41.115Z,0
2016-11-11T04:45:41.070Z,0
2016-11-11T04:46:41.052Z,0
2016-11-11T04:47:41.036Z,0
2016-11-11T04:48:41.020Z,0
2016-11-11T04:49:41.015Z,0
2016-11-11T04:50:40.958Z,0
2016-11-11T04:51:40.951Z,0
2016-11-11T04:52:40.921Z,0
2016-11-11T04:53:40.908Z,0
2016-11-11T04:54:40.863Z,0
2016-11-11T04:55:40.838Z,0
2016-11-11T04:56:40.823Z,0
2016-11-11T04:57:40.823Z,0
2016-11-11T04:58:40.793Z,0
2016-11-11T04:59:40.780Z,0
2016-11-11T05:00:40.770Z,0
2016-11-11T05:01:40.721Z,0
2016-11-11T05:02:40.703Z,0
2016-11-11T05:03:40.682Z,0
2016-11-11T05:04:40.703Z,0
2016-11-11T05:05:40.623Z,0
2016-11-11T05:06:40.632Z,0
2016-11-11T05:07:40.606Z,0
2016-11-11T05:08:40.611Z,0
2016-11-11T05:09:40.548Z,0
2016-11-11T05:10:40.531Z,0
2016-11-11T05:11:40.502Z,0
2016-11-11T05:12:40.487Z,0
2016-11-11T05:13:40.463Z,0
2016-11-11T05:14:40.465Z,0
2016-11-11T05:15:40.417Z,0
2016-11-11T05:16:40.424Z,0
2016-11-11T05:17:40.385Z,0
2016-11-11T05:18:40.352Z,0
2016-11-11T05:19:40.353Z,0
2016-11-11T05:20:40.319Z,0
2016-11-11T05:21:40.309Z,0
2016-11-11T05:22:40.276Z,0
2016-11-11T05:23:40.258Z,0
2016-11-11T05:24:40.227Z,0
2016-11-11T05:25:40.202Z,0
2016-11-11T05:26:40.182Z,0
2016-11-11T05:27:40.195Z,0
2016-11-11T05:28:40.165Z,0
2016-11-11T05:29:40.118Z,0
2016-11-11T05:30:40.101Z,0
2016-11-11T05:31:40.070Z,0
2016-11-11T05:32:40.054Z,0
2016-11-11T05:33:40.061Z,0
2016-11-11T05:34:40.018Z,0
2016-11-11T05:35:40.005Z,0
2016-11-11T05:36:39.962Z,0
2016-11-11T05:37:39.951Z,0
2016-11-11T05:38:39.914Z,0
2016-11-11T05:39:39.908Z,0
2016-11-11T05:40:39.890Z,0
2016-11-11T05:41:39.862Z,0
2016-11-11T05:42:39.837Z,0
2016-11-11T05:43:40.129Z,0
2016-11-11T05:44:39.800Z,4
2016-11-11T05:45:39.758Z,4
2016-11-11T05:46:39.764Z,0
2016-11-11T05:47:39.718Z,4
2016-11-11T05:48:39.707Z,8
2016-11-11T05:49:39.681Z,4
2016-11-11T05:50:39.661Z,8
2016-11-11T05:51:39.620Z,8
2016-11-11T05:52:39.597Z,16
2016-11-11T05:53:39.619Z,16
2016-11-11T05:54:39.556Z,20
2016-11-11T05:55:39.549Z,20
2016-11-11T05:56:39.548Z,28
2016-11-11T05:57:39.487Z,32
2016-11-11T05:58:39.468Z,36
2016-11-11T05:59:39.458Z,40
2016-11-11T06:00:39.445Z,48
2016-11-11T06:01:39.746Z,56
2016-11-11T06:02:39.380Z,68
2016-11-11T06:03:39.373Z,76
2016-11-11T06:04:39.375Z,84
2016-11-11T06:05:39.342Z,100
2016-11-11T06:06:39.312Z,112
2016-11-11T06:07:39.282Z,128
2016-11-11T06:08:39.280Z,148
2016-11-11T06:09:39.214Z,164
2016-11-11T06:10:39.229Z,180
2016-11-11T06:11:39.197Z,196
2016-11-11T06:12:39.172Z,220
2016-11-11T06:13:39.136Z,244
2016-11-11T06:14:39.151Z,284
2016-11-11T06:15:39.103Z,316
2016-11-11T06:16:39.067Z,344
2016-11-11T06:17:39.035Z,376
2016-11-11T06:18:39.051Z,396
2016-11-11T06:19:39.029Z,428
2016-11-11T06:20:38.983Z,472
2016-11-11T06:21:38.974Z,528
2016-11-11T06:22:38.965Z,584
2016-11-11T06:23:38.939Z,644
2016-11-11T06:24:38.921Z,696
2016-11-11T06:25:38.868Z,740
2016-11-11T06:26:38.876Z,796
2016-11-11T06:27:38.850Z,804
2016-11-11T06:28:38.802Z,808
2016-11-11T06:29:39.115Z,808
2016-11-11T06:30:38.777Z,820
2016-11-11T06:31:38.766Z,836
2016-11-11T06:32:38.740Z,844
2016-11-11T06:33:38.713Z,864
2016-11-11T06:34:38.699Z,824
2016-11-11T06:35:38.677Z,808
2016-11-11T06:36:38.639Z,832
2016-11-11T06:37:38.940Z,888
2016-11-11T06:38:38.612Z,1016
2016-11-11T06:39:38.599Z,1136
2016-11-11T06:40:38.559Z,1224
2016-11-11T06:41:38.532Z,1280
2016-11-11T06:42:38.530Z,1352
2016-11-11T06:43:38.495Z,1400
2016-11-11T06:44:38.468Z,1460
2016-11-11T06:45:38.445Z,1508
2016-11-11T06:46:38.409Z,1500
2016-11-11T06:47:38.423Z,1548
2016-11-11T06:48:38.365Z,1568
2016-11-11T06:49:38.385Z,1596
2016-11-11T06:50:38.335Z,1624
2016-11-11T06:51:38.336Z,1696
2016-11-11T06:52:38.294Z,1872
2016-11-11T06:53:38.274Z,2036
2016-11-11T06:54:38.274Z,2316
2016-11-11T06:55:38.214Z,2624
2016-11-11T06:56:38.204Z,2948
2016-11-11T06:57:38.168Z,3320
2016-11-11T06:58:38.147Z,3556
2016-11-11T06:59:38.162Z,3640
2016-11-11T07:00:38.115Z,3660
2016-11-11T07:01:38.715Z,3552
2016-11-11T07:02:38.125Z,3508
2016-11-11T07:03:38.073Z,3432
2016-11-11T07:04:38.020Z,3352
2016-11-11T07:05:38.010Z,3356
2016-11-11T07:06:38.323Z,3348
2016-11-11T07:07:38.003Z,3412
2016-11-11T07:08:37.935Z,3528
2016-11-11T07:09:37.937Z,3728
2016-11-11T07:10:37.934Z,3880
2016-11-11T07:11:37.885Z,3828
2016-11-11T07:12:37.853Z,3840
2016-11-11T07:13:37.894Z,3884
2016-11-11T07:14:37.826Z,3944
2016-11-11T07:15:37.807Z,3960
2016-11-11T07:16:37.816Z,4064
2016-11-11T07:17:37.758Z,4236
2016-11-11T07:18:37.736Z,4556
2016-11-11T07:19:37.711Z,4824
2016-11-11T07:20:37.723Z,5128
2016-11-11T07:21:37.672Z,5008
2016-11-11T07:22:37.662Z,5108
2016-11-11T07:23:37.654Z,5004
2016-11-11T07:24:37.603Z,4964
2016-11-11T07:25:37.578Z,5048
2016-11-11T07:26:37.600Z,5108
2016-11-11T07:27:37.556Z,5108
2016-11-11T07:28:37.505Z,5460
2016-11-11T07:29:37.492Z,5632
2016-11-11T07:30:37.457Z,5580
2016-11-11T07:31:37.477Z,5636
2016-11-11T07:32:37.433Z,5580
2016-11-11T07:33:37.435Z,5596
2016-11-11T07:34:37.399Z,5368
2016-11-11T07:35:37.345Z,4956
2016-11-11T07:36:37.348Z,4912
2016-11-11T07:37:37.323Z,4784
2016-11-11T07:38:37.319Z,4516
2016-11-11T07:39:37.345Z,4480
2016-11-11T07:40:37.254Z,4876
2016-11-11T07:41:37.267Z,5540
2016-11-11T07:42:37.278Z,6144
2016-11-11T07:43:37.494Z,6812
2016-11-11T07:44:37.185Z,7272
2016-11-11T07:45:37.160Z,7064
2016-11-11T07:46:37.157Z,7400
2016-11-11T07:47:37.125Z,7736
2016-11-11T07:48:37.104Z,7496
2016-11-11T07:49:43.369Z,7160
2016-11-11T07:50:37.067Z,6944
2016-11-11T07:51:37.038Z,6720
2016-11-11T07:52:37.039Z,6744
2016-11-11T07:53:37.285Z,6876
2016-11-11T07:54:36.973Z,6820
2016-11-11T07:55:36.952Z,6848
2016-11-11T07:56:36.943Z,6960
2016-11-11T07:57:36.910Z,6888
2016-11-11T07:58:36.863Z,6796
2016-11-11T07:59:36.853Z,6808
2016-11-11T08:00:36.838Z,6904
2016-11-11T08:01:36.792Z,7108
2016-11-11T08:02:36.776Z,7468
2016-11-11T08:03:36.754Z,7860
2016-11-11T08:04:36.798Z,8220
2016-11-11T08:05:36.703Z,8312
2016-11-11T08:06:36.678Z,8240
2016-11-11T08:07:36.672Z,8900
2016-11-11T08:08:36.634Z,8632
2016-11-11T08:09:36.615Z,8344
2016-11-11T08:10:36.599Z,8392
2016-11-11T08:11:36.557Z,8392
2016-11-11T08:12:36.553Z,8708
2016-11-11T08:13:36.539Z,8984
2016-11-11T08:14:36.811Z,9276
2016-11-11T08:15:36.486Z,9656
2016-11-11T08:16:36.479Z,10076
2016-11-11T08:17:36.634Z,10492
2016-11-11T08:18:36.404Z,10704
2016-11-11T08:19:36.364Z,10848
2016-11-11T08:20:36.367Z,10856
2016-11-11T08:21:36.328Z,10888
2016-11-11T08:22:36.311Z,10808
2016-11-11T08:23:36.289Z,10960
2016-11-11T08:24:36.291Z,11420
2016-11-11T08:25:36.261Z,11772
2016-11-11T08:26:36.233Z,12276
2016-11-11T08:27:36.221Z,12816
2016-11-11T08:28:36.185Z,13168
2016-11-11T08:29:36.154Z,12868
2016-11-11T08:30:36.112Z,12480
2016-11-11T08:31:36.277Z,12544
2016-11-11T08:32:36.080Z,12412
2016-11-11T08:33:36.082Z,12716
2016-11-11T08:34:36.006Z,12664
2016-11-11T08:35:36.038Z,12592
2016-11-11T08:36:35.973Z,13176
2016-11-11T08:37:35.965Z,13352
2016-11-11T08:38:35.918Z,13812
2016-11-11T08:39:35.912Z,14388
2016-11-11T08:40:35.889Z,14792
2016-11-11T08:41:35.866Z,14592
2016-11-11T08:42:35.868Z,14216
2016-11-11T08:43:35.809Z,14020
2016-11-11T08:44:35.990Z,14268
2016-11-11T08:45:35.990Z,14432
2016-11-11T08:46:35.763Z,14736
2016-11-11T08:47:35.723Z,14920
2016-11-11T08:48:35.719Z,14680
2016-11-11T08:49:35.672Z,14620
2016-11-11T08:50:35.649Z,14628
2016-11-11T08:51:35.638Z,15596
2016-11-11T08:52:35.613Z,15268
2016-11-11T08:53:35.556Z,15556
2016-11-11T08:54:35.569Z,16084
2016-11-11T08:55:35.517Z,15768
2016-11-11T08:56:35.494Z,15768
2016-11-11T08:57:35.465Z,15448
2016-11-11T08:58:35.474Z,15244
2016-11-11T08:59:35.444Z,14932
2016-11-11T09:00:35.400Z,15108
2016-11-11T09:01:35.392Z,15292
2016-11-11T09:02:35.368Z,15684
2016-11-11T09:03:35.355Z,15692
2016-11-11T09:04:35.335Z,16104
2016-11-11T09:05:35.304Z,16664
2016-11-11T09:06:35.285Z,16340
2016-11-11T09:07:35.273Z,16572
2016-11-11T09:08:35.239Z,16260
2016-11-11T09:09:35.209Z,16348
2016-11-11T09:10:35.196Z,15916
2016-11-11T09:11:35.347Z,15932
2016-11-11T09:12:35.352Z,15452
2016-11-11T09:13:35.111Z,14912
2016-11-11T09:14:35.106Z,14504
2016-11-11T09:15:35.563Z,14344
2016-11-11T09:16:35.039Z,14384
2016-11-11T09:17:35.045Z,14764
2016-11-11T09:18:35.009Z,14992
2016-11-11T09:19:34.970Z,14544
2016-11-11T09:20:34.945Z,14400
2016-11-11T09:21:34.942Z,14196
2016-11-11T09:22:34.917Z,14332
2016-11-11T09:23:34.878Z,13928
2016-11-11T09:24:34.892Z,14112
2016-11-11T09:25:35.166Z,14108
2016-11-11T09:26:34.853Z,13812
2016-11-11T09:27:34.804Z,13496
2016-11-11T09:28:34.766Z,13668
2016-11-11T09:29:34.735Z,14044
2016-11-11T09:30:34.723Z,14644
2016-11-11T09:31:34.717Z,14976
2016-11-11T09:32:34.701Z,14808
2016-11-11T09:33:34.657Z,15096
2016-11-11T09:34:34.961Z,15696
2016-11-11T09:35:34.629Z,15908
2016-11-11T09:36:34.594Z,16680
2016-11-11T09:37:34.592Z,16952
2016-11-11T09:38:34.532Z,16224
2016-11-11T09:39:34.723Z,15452
2016-11-11T09:40:34.519Z,15140
2016-11-11T09:41:34.476Z,15376
2016-11-11T09:42:34.438Z,15912
2016-11-11T09:43:34.943Z,16248
2016-11-11T09:44:34.410Z,16428
2016-11-11T09:45:34.397Z,16008
2016-11-11T09:46:34.382Z,15968
2016-11-11T09:47:34.355Z,16052
2016-11-11T09:48:34.331Z,15800
2016-11-11T09:49:34.299Z,16084
2016-11-11T09:50:34.587Z,16140
2016-11-11T09:51:34.251Z,16376
2016-11-11T09:52:34.212Z,16736
2016-11-11T09:53:34.187Z,16912
2016-11-11T09:54:34.196Z,16660
2016-11-11T09:55:34.179Z,16800
2016-11-11T09:56:34.164Z,17108
2016-11-11T09:57:34.143Z,17148
2016-11-11T09:58:34.076Z,17488
2016-11-11T09:59:34.102Z,18400
2016-11-11T10:00:34.066Z,18176
2016-11-11T10:01:34.039Z,17160
2016-11-11T10:02:34.024Z,17180
2016-11-11T10:03:33.991Z,17448
2016-11-11T10:04:33.975Z,17664
2016-11-11T10:05:34.140Z,17580
2016-11-11T10:06:34.115Z,17668
2016-11-11T10:07:33.911Z,18304
2016-11-11T10:08:33.882Z,18464
2016-11-11T10:09:33.834Z,18368
2016-11-11T10:10:33.834Z,18528
2016-11-11T10:11:33.818Z,19008
2016-11-11T10:12:33.805Z,19648
2016-11-11T10:13:33.767Z,20672
2016-11-11T10:14:33.749Z,20832
2016-11-11T10:15:33.738Z,21472
2016-11-11T10:16:33.696Z,22560
2016-11-11T10:17:33.707Z,23808
2016-11-11T10:18:33.664Z,23872
2016-11-11T10:19:33.652Z,25024
2016-11-11T10:20:33.620Z,23616
2016-11-11T10:21:33.589Z,24064
2016-11-11T10:22:33.572Z,24608
2016-11-11T10:23:33.546Z,25952
2016-11-11T10:24:33.500Z,26848
2016-11-11T10:25:33.498Z,27968
2016-11-11T10:26:33.467Z,28704
2016-11-11T10:27:33.476Z,30016
2016-11-11T10:28:33.428Z,30848
2016-11-11T10:29:33.409Z,30944
2016-11-11T10:30:33.375Z,27648
2016-11-11T10:31:33.344Z,27136
2016-11-11T10:32:33.320Z,25184
2016-11-11T10:34:33.261Z,24608
2016-11-11T10:35:33.233Z,26112
2016-11-11T10:36:33.233Z,26944
2016-11-11T10:37:33.245Z,26624
2016-11-11T10:38:33.192Z,26336
2016-11-11T10:39:33.158Z,27104
2016-11-11T10:40:33.132Z,26432
2016-11-11T10:41:33.128Z,26080
2016-11-11T10:42:33.078Z,25760
2016-11-11T10:43:33.054Z,26656
2016-11-11T10:44:33.024Z,26912
2016-11-11T10:45:33.230Z,26528
2016-11-11T10:46:32.997Z,24832
2016-11-11T10:47:32.963Z,22784
2016-11-11T10:48:32.928Z,21920
2016-11-11T10:49:32.913Z,22240
2016-11-11T10:50:32.890Z,22240
2016-11-11T10:51:32.857Z,21824
2016-11-11T10:52:32.842Z,22080
2016-11-11T10:53:32.817Z,22112
2016-11-11T10:54:32.777Z,21760
2016-11-11T10:55:32.770Z,22240
2016-11-11T10:56:32.761Z,22528
2016-11-11T10:57:32.764Z,21920
2016-11-11T10:58:32.697Z,20640
2016-11-11T10:59:32.668Z,20256
2016-11-11T11:00:32.629Z,19616
2016-11-11T11:01:32.629Z,18784
2016-11-11T11:02:32.617Z,17684
2016-11-11T11:03:32.600Z,17488
2016-11-11T11:04:32.548Z,17552
2016-11-11T11:05:32.543Z,17760
2016-11-11T11:06:32.506Z,18368
2016-11-11T11:07:32.481Z,19648
2016-11-11T11:08:32.457Z,20448
2016-11-11T11:09:32.446Z,20960
2016-11-11T11:10:32.434Z,21024
2016-11-11T11:11:32.704Z,21248
2016-11-11T11:12:32.379Z,21568
2016-11-11T11:13:32.362Z,22112
2016-11-11T11:14:32.336Z,22368
2016-11-11T11:15:32.293Z,22176
2016-11-11T11:16:32.304Z,21184
2016-11-11T11:17:32.258Z,20960
2016-11-11T11:18:32.206Z,21088
2016-11-11T11:19:32.178Z,21600
2016-11-11T11:20:32.180Z,23072
2016-11-11T11:21:32.135Z,21824
2016-11-11T11:22:32.125Z,20640
2016-11-11T11:23:32.099Z,20768
2016-11-11T11:24:32.078Z,22080
2016-11-11T11:25:32.058Z,22592
2016-11-11T11:26:32.035Z,21280
2016-11-11T11:27:32.020Z,19744
2016-11-11T11:28:31.998Z,19776
2016-11-11T11:29:31.959Z,21728
2016-11-11T11:30:31.943Z,21664
2016-11-11T11:31:31.939Z,20480
2016-11-11T11:32:31.873Z,20192
2016-11-11T11:33:31.876Z,20032
2016-11-11T11:34:31.847Z,19584
2016-11-11T11:35:31.839Z,20384
2016-11-11T11:36:31.809Z,21376
2016-11-11T11:37:31.780Z,20448
2016-11-11T11:38:31.746Z,20192
2016-11-11T11:39:31.724Z,20800
2016-11-11T11:40:31.702Z,21088
2016-11-11T11:41:31.705Z,22048
2016-11-11T11:42:31.666Z,22240
2016-11-11T11:43:31.626Z,23072
2016-11-11T11:44:31.635Z,25216
2016-11-11T11:45:31.591Z,25376
2016-11-11T11:46:31.553Z,22912
2016-11-11T11:47:31.571Z,21248
2016-11-11T11:48:31.537Z,21664
2016-11-11T11:49:31.795Z,22208
2016-11-11T11:50:31.462Z,22784
2016-11-11T11:51:31.462Z,22464
2016-11-11T11:52:31.433Z,22944
2016-11-11T11:53:31.393Z,24320
2016-11-11T11:54:31.391Z,23648
2016-11-11T11:55:31.368Z,23360
2016-11-11T11:56:31.311Z,21760
2016-11-11T11:57:31.310Z,22176
2016-11-11T11:58:31.279Z,22208
2016-11-11T11:59:31.263Z,21248
2016-11-11T12:00:31.225Z,20384
2016-11-11T12:01:31.215Z,20448
2016-11-11T12:02:31.206Z,21696
2016-11-11T12:03:31.142Z,23040
2016-11-11T12:04:31.154Z,23328
2016-11-11T12:05:31.141Z,21792
2016-11-11T12:06:31.106Z,20736
2016-11-11T12:07:31.063Z,21088
2016-11-11T12:08:31.068Z,21504
2016-11-11T12:09:31.028Z,22272
2016-11-11T12:10:30.994Z,21984
2016-11-11T12:11:30.975Z,21280
2016-11-11T12:12:30.948Z,21152
2016-11-11T12:13:30.949Z,21440
2016-11-11T12:14:30.929Z,21024
2016-11-11T12:15:30.858Z,20992
2016-11-11T12:16:30.870Z,21984
2016-11-11T12:17:30.844Z,22656
2016-11-11T12:18:30.805Z,23936
2016-11-11T12:19:30.810Z,22688
2016-11-11T12:20:30.775Z,22304
2016-11-11T12:21:30.734Z,22240
2016-11-11T12:22:30.723Z,22400
2016-11-11T12:23:30.708Z,22560
2016-11-11T12:24:30.663Z,21856
2016-11-11T12:25:30.639Z,20992
2016-11-11T12:26:30.630Z,20320
2016-11-11T12:27:30.581Z,19904
2016-11-11T12:28:30.582Z,20832
2016-11-11T12:29:30.537Z,20800
2016-11-11T12:30:30.519Z,20320
2016-11-11T12:31:30.495Z,20576
2016-11-11T12:32:30.487Z,20448
2016-11-11T12:33:30.448Z,20480
2016-11-11T12:34:30.435Z,20480
2016-11-11T12:35:30.428Z,20224
2016-11-11T12:36:30.392Z,19744
2016-11-11T12:37:30.362Z,18784
2016-11-11T12:38:30.333Z,18272
2016-11-11T12:39:30.343Z,18400
2016-11-11T12:40:30.292Z,18144
2016-11-11T12:41:30.243Z,17236
2016-11-11T12:42:30.240Z,17080
2016-11-11T12:43:30.225Z,16832
2016-11-11T12:44:30.180Z,17144
2016-11-11T12:45:30.176Z,17144
2016-11-11T12:46:30.132Z,16864
2016-11-11T12:47:30.117Z,16456
2016-11-11T12:48:30.088Z,16764
2016-11-11T12:49:30.086Z,17436
2016-11-11T12:50:30.046Z,17268
2016-11-11T12:51:30.041Z,16768
2016-11-11T12:52:29.991Z,16996
2016-11-11T12:53:29.987Z,16684
2016-11-11T12:54:29.945Z,17036
2016-11-11T12:55:29.934Z,17008
2016-11-11T12:56:29.879Z,17116
2016-11-11T12:57:29.869Z,17316
2016-11-11T12:58:29.841Z,18048
2016-11-11T12:59:29.834Z,17856
2016-11-11T13:00:29.821Z,17056
2016-11-11T13:01:29.787Z,17792
2016-11-11T13:02:29.761Z,16656
2016-11-11T13:03:29.736Z,16708
2016-11-11T13:04:29.711Z,16916
2016-11-11T13:05:30.005Z,17728
2016-11-11T13:06:29.653Z,18304
2016-11-11T13:07:29.615Z,18944
2016-11-11T13:08:29.602Z,19648
2016-11-11T13:09:29.596Z,20192
2016-11-11T13:10:29.568Z,20864
2016-11-11T13:11:29.530Z,20896
2016-11-11T13:12:29.504Z,20928
2016-11-11T13:13:29.492Z,20832
2016-11-11T13:14:29.466Z,20576
2016-11-11T13:15:29.453Z,20096
2016-11-11T13:16:29.439Z,21376
2016-11-11T13:17:29.404Z,21344
2016-11-11T13:18:29.378Z,19840
2016-11-11T13:19:29.674Z,18912
2016-11-11T13:20:29.332Z,18528
2016-11-11T13:21:29.298Z,17920
2016-11-11T13:22:29.296Z,17632
2016-11-11T13:23:29.244Z,17664
2016-11-11T13:24:29.220Z,16708
2016-11-11T13:25:29.215Z,15648
2016-11-11T13:26:29.188Z,15036
2016-11-11T13:27:29.155Z,13876
2016-11-11T13:28:29.185Z,12840
2016-11-11T13:29:29.113Z,12788
2016-11-11T13:30:29.086Z,12716
2016-11-11T13:31:29.044Z,12600
2016-11-11T13:32:29.051Z,12472
2016-11-11T13:33:28.992Z,11696
2016-11-11T13:34:29.000Z,11088
2016-11-11T13:35:28.948Z,11304
2016-11-11T13:36:28.955Z,11900
2016-11-11T13:37:28.918Z,11496
2016-11-11T13:38:28.868Z,11360
2016-11-11T13:39:28.848Z,11332
2016-11-11T13:40:28.863Z,11648
2016-11-11T13:41:28.825Z,12088
2016-11-11T13:42:28.814Z,12292
2016-11-11T13:43:28.750Z,12400
2016-11-11T13:44:29.068Z,12268
2016-11-11T13:45:28.714Z,11876